Time;durP1;ratioP1;P1;durP2;ratioP2;P2;SDS_P1;SDS_P2;PMS_P1;PMS_P2;Temp;Humidity;BMP_temperature;BMP_pressure;BME280_temperature;BME280_humidity;BME280_pressure;Samples;Min_cycle;Max_cycle;Signal;HPM_P1;HPM_P2
2024/01/11 00:09:23;;;;;;;26.60;12.50;;;-5.00;99.90;;;;;;21077163;28;20028;-59
2024/01/11 00:19:29;;;;;;;29.38;13.25;;;-5.00;99.90;;;;;;21075959;28;20481;-59
2024/01/11 00:29:31;;;;;;;31.98;15.00;;;-5.00;99.90;;;;;;21057644;28;20036;-59
2024/01/11 00:39:32;;;;;;;32.45;14.80;;;-5.00;99.90;;;;;;21075156;28;20032;-48
2024/01/11 00:49:34;;;;;;;28.95;14.10;;;-5.00;99.90;;;;;;21073643;28;20048;-60
2024/01/11 00:59:36;;;;;;;35.58;15.30;;;-4.70;99.90;;;;;;21073604;28;20387;-60
2024/01/11 01:09:38;;;;;;;30.55;14.73;;;-4.80;99.90;;;;;;21073096;28;20044;-61
2024/01/11 01:19:40;;;;;;;25.67;13.40;;;-4.90;99.90;;;;;;21072260;28;20040;-60
2024/01/11 01:29:41;;;;;;;36.58;17.25;;;-5.00;99.90;;;;;;21070619;28;20036;-60
2024/01/11 01:39:44;;;;;;;31.90;16.05;;;-5.00;99.90;;;;;;21052495;28;20047;-60
2024/01/11 01:49:47;;;;;;;37.65;17.38;;;-4.80;99.90;;;;;;21069800;28;20448;-60
2024/01/11 01:59:53;;;;;;;36.10;15.98;;;-4.90;99.90;;;;;;21050806;28;20077;-60
2024/01/11 02:09:56;;;;;;;37.95;16.73;;;-5.00;99.90;;;;;;21049984;28;20032;-60
2024/01/11 02:19:58;;;;;;;31.10;16.13;;;-4.90;99.90;;;;;;21047073;28;20100;-59
2024/01/11 02:29:59;;;;;;;31.35;15.43;;;-4.80;99.90;;;;;;21067592;28;20089;-61
2024/01/11 02:40:02;;;;;;;35.10;16.15;;;-4.80;99.90;;;;;;21066794;28;20028;-59
2024/01/11 02:50:05;;;;;;;29.05;12.77;;;-4.80;99.90;;;;;;21074881;28;20428;-60
2024/01/11 03:00:07;;;;;;;23.95;12.27;;;-4.80;99.90;;;;;;21093113;28;20048;-60
2024/01/11 03:10:10;;;;;;;24.58;12.38;;;-4.60;99.90;;;;;;21091394;28;20028;-61
2024/01/11 03:20:13;;;;;;;27.58;11.82;;;-4.70;99.90;;;;;;21091396;28;20036;-60
2024/01/11 03:30:16;;;;;;;22.88;11.93;;;-4.70;99.90;;;;;;21074845;28;20036;-60
2024/01/11 03:40:18;;;;;;;20.08;10.00;;;-4.70;99.90;;;;;;21092342;28;20686;-60
2024/01/11 03:50:20;;;;;;;19.40;8.55;;;-4.80;99.90;;;;;;21091379;28;20028;-59
2024/01/11 04:00:24;;;;;;;10.88;5.60;;;-4.60;99.90;;;;;;21059973;28;20032;-59
2024/01/11 04:10:26;;;;;;;10.63;5.82;;;-4.50;99.90;;;;;;21077563;28;20036;-59
2024/01/11 04:20:28;;;;;;;8.43;4.70;;;-4.60;99.90;;;;;;21076761;28;20498;-52
2024/01/11 04:30:31;;;;;;;8.55;4.75;;;-4.50;99.90;;;;;;21074199;28;20040;-55
2024/01/11 04:40:32;;;;;;;9.55;4.65;;;-4.50;99.90;;;;;;21075720;28;20448;-60
2024/01/11 04:50:34;;;;;;;7.82;3.90;;;-4.40;99.90;;;;;;21073006;28;20035;-59
2024/01/11 05:00:36;;;;;;;6.18;3.38;;;-4.40;99.90;;;;;;21073787;28;20032;-60
2024/01/11 05:10:38;;;;;;;5.85;3.30;;;-4.50;99.90;;;;;;21072742;28;20489;-59
2024/01/11 05:20:40;;;;;;;5.38;2.30;;;-4.40;99.90;;;;;;21072052;28;20117;-60
2024/01/11 05:30:42;;;;;;;7.18;3.63;;;-4.40;99.90;;;;;;21071454;28;20473;-60
2024/01/11 05:40:43;;;;;;;6.50;3.38;;;-4.30;99.90;;;;;;21068626;28;20054;-60
2024/01/11 05:50:48;;;;;;;5.10;2.33;;;-4.30;99.90;;;;;;21069260;28;20047;-60
2024/01/11 06:00:50;;;;;;;4.43;2.17;;;-4.40;99.90;;;;;;21068346;28;20028;-60
2024/01/11 06:10:51;;;;;;;2.20;1.40;;;-4.40;99.90;;;;;;21063192;28;20032;-60
2024/01/11 06:20:53;;;;;;;1.77;0.90;;;-3.90;99.90;;;;;;21063178;28;20048;-60
2024/01/11 06:30:55;;;;;;;1.88;0.80;;;-3.60;99.90;;;;;;21063213;28;20036;-60
2024/01/11 06:40:57;;;;;;;2.45;1.05;;;-3.30;99.90;;;;;;21061630;28;20071;-60
2024/01/11 06:50:59;;;;;;;2.83;1.40;;;-3.40;99.90;;;;;;21042629;28;20036;-60
2024/01/11 07:01:00;;;;;;;1.63;0.77;;;-3.00;99.90;;;;;;21061640;28;20270;-59
2024/01/11 07:11:03;;;;;;;0.75;0.40;;;-3.20;99.90;;;;;;21060313;28;20036;-59
2024/01/11 07:21:05;;;;;;;1.20;0.63;;;-3.40;99.90;;;;;;21042061;28;20770;-59
2024/01/11 07:31:10;;;;;;;1.13;0.60;;;-3.40;99.90;;;;;;21066561;28;20036;-60
2024/01/11 07:41:13;;;;;;;1.00;0.50;;;-3.30;99.90;;;;;;21071496;28;20047;-60
2024/01/11 07:51:15;;;;;;;1.52;0.73;;;-3.00;99.90;;;;;;21075790;28;20192;-61
2024/01/11 08:01:17;;;;;;;0.93;0.43;;;-2.80;99.90;;;;;;21073323;28;20036;-63
2024/01/11 08:11:20;;;;;;;0.52;0.30;;;-1.60;99.90;;;;;;21073259;28;20040;-62
2024/01/11 08:21:22;;;;;;;3.78;1.65;;;0.00;99.90;;;;;;21071525;28;20048;-62
2024/01/11 08:31:24;;;;;;;3.65;1.88;;;0.70;99.90;;;;;;21070600;28;20113;-62
2024/01/11 08:41:25;;;;;;;2.85;1.40;;;0.80;99.90;;;;;;21069323;28;20101;-62
2024/01/11 08:51:28;;;;;;;2.38;1.30;;;1.10;99.90;;;;;;21069716;28;20032;-62
2024/01/11 09:01:29;;;;;;;3.25;2.10;;;1.70;99.90;;;;;;21068994;28;20035;-62
2024/01/11 09:11:32;;;;;;;3.17;1.60;;;2.30;99.90;;;;;;21068290;28;20570;-62
2024/01/11 09:21:34;;;;;;;3.88;2.30;;;2.90;99.90;;;;;;21067440;28;20082;-62
2024/01/11 09:31:36;;;;;;;2.92;2.05;;;3.20;99.90;;;;;;21067245;28;20744;-62
2024/01/11 09:41:41;;;;;;;3.03;1.77;;;3.60;99.90;;;;;;21065985;28;20036;-63
2024/01/11 09:51:46;;;;;;;1.75;1.23;;;4.00;99.90;;;;;;21063957;28;20036;-62
2024/01/11 10:01:48;;;;;;;1.50;1.13;;;4.40;99.90;;;;;;21063310;28;20305;-62
2024/01/11 10:11:51;;;;;;;1.85;1.20;;;4.70;99.90;;;;;;21062997;28;20495;-62
2024/01/11 10:21:53;;;;;;;3.22;1.70;;;5.00;99.90;;;;;;21063641;28;20930;-62
2024/01/11 10:31:55;;;;;;;2.13;1.50;;;5.60;99.90;;;;;;21061234;28;20040;-62
2024/01/11 10:42:07;;;;;;;2.58;1.75;;;5.80;99.90;;;;;;21026176;28;20036;-62
2024/01/11 10:52:13;;;;;;;3.00;2.10;;;5.90;99.90;;;;;;21060523;28;20085;-63
2024/01/11 11:02:15;;;;;;;2.85;1.75;;;6.20;99.90;;;;;;21062804;28;20044;-60
2024/01/11 11:12:19;;;;;;;2.63;1.95;;;6.20;99.20;;;;;;21077694;28;20078;-59
2024/01/11 11:22:21;;;;;;;3.33;2.42;;;6.00;99.90;;;;;;21077492;28;20109;-59
2024/01/11 11:32:42;;;;;;;3.17;2.20;;;6.30;99.30;;;;;;21075751;28;20020;-59
2024/01/11 11:42:48;;;;;;;4.05;2.47;;;6.30;99.90;;;;;;21075132;28;20043;-59
2024/01/11 11:52:56;;;;;;;3.95;2.58;;;6.60;99.90;;;;;;21073030;28;20035;-58
2024/01/11 12:02:58;;;;;;;2.97;1.90;;;6.60;99.90;;;;;;21073457;28;20500;-59
2024/01/11 12:13:00;;;;;;;3.45;2.28;;;6.50;98.80;;;;;;21071030;28;20064;-60
2024/01/11 12:23:03;;;;;;;3.53;2.45;;;6.40;99.20;;;;;;21071445;28;20574;-60
2024/01/11 12:33:05;;;;;;;3.78;2.20;;;6.50;99.40;;;;;;21071347;28;20031;-59
2024/01/11 12:43:08;;;;;;;2.65;1.73;;;6.40;98.70;;;;;;21071187;28;20413;-60
2024/01/11 12:53:19;;;;;;;3.20;2.08;;;6.20;98.30;;;;;;21069329;28;20082;-46
2024/01/11 13:03:21;;;;;;;3.40;2.00;;;6.20;99.30;;;;;;21068821;28;20609;-45
2024/01/11 13:13:23;;;;;;;4.40;2.00;;;5.80;98.40;;;;;;21066711;28;20043;-44
2024/01/11 13:23:25;;;;;;;3.42;2.13;;;5.30;98.60;;;;;;21066268;28;20562;-43
2024/01/11 13:33:29;;;;;;;4.07;2.15;;;4.70;99.50;;;;;;21064656;28;20032;-56
2024/01/11 13:43:31;;;;;;;3.45;2.50;;;4.30;99.90;;;;;;21047304;28;20020;-45
2024/01/11 13:53:33;;;;;;;3.95;2.35;;;4.00;99.90;;;;;;21063838;28;20101;-57
2024/01/11 14:03:35;;;;;;;3.95;2.33;;;3.70;99.90;;;;;;21063707;28;20035;-57
2024/01/11 14:13:36;;;;;;;2.65;1.85;;;3.50;99.90;;;;;;21064039;28;20035;-57
2024/01/11 14:23:41;;;;;;;3.20;2.10;;;3.30;99.90;;;;;;21062972;28;20048;-56
2024/01/11 14:33:43;;;;;;;3.67;2.13;;;2.90;99.90;;;;;;21045075;28;20024;-58
2024/01/11 14:43:46;;;;;;;12.07;2.53;;;2.60;99.90;;;;;;21060867;28;20049;-49
2024/01/11 14:53:47;;;;;;;4.68;2.30;;;2.30;99.90;;;;;;21061754;28;20032;-56
2024/01/11 15:03:49;;;;;;;5.65;3.40;;;2.00;99.90;;;;;;21060087;28;20486;-56
2024/01/11 15:13:51;;;;;;;5.32;3.05;;;1.80;99.90;;;;;;21060275;28;20028;-56
2024/01/11 15:23:54;;;;;;;5.03;2.97;;;1.20;99.90;;;;;;21060505;28;20070;-56
2024/01/11 15:33:56;;;;;;;4.75;2.35;;;0.60;99.90;;;;;;21057888;28;20412;-58
2024/01/11 15:43:57;;;;;;;2.30;1.33;;;0.10;99.90;;;;;;21060122;28;20077;-58
2024/01/11 15:53:59;;;;;;;2.28;0.90;;;-0.10;99.90;;;;;;21067327;28;20028;-58
2024/01/11 16:04:02;;;;;;;2.15;1.17;;;-0.20;99.90;;;;;;21073790;28;20385;-58
2024/01/11 16:14:03;;;;;;;1.80;0.50;;;-0.50;99.90;;;;;;21055351;28;20028;-48
2024/01/11 16:24:06;;;;;;;0.68;0.20;;;-0.70;99.90;;;;;;21072951;28;20052;-58
2024/01/11 16:34:07;;;;;;;0.80;0.43;;;-0.50;99.90;;;;;;21074542;28;20039;-57
2024/01/11 16:44:09;;;;;;;0.22;0.10;;;-0.30;99.90;;;;;;21075781;28;20065;-57
2024/01/11 16:54:11;;;;;;;0.50;0.17;;;-0.30;99.90;;;;;;21074759;28;20043;-54
2024/01/11 17:04:14;;;;;;;0.22;0.10;;;0.20;99.90;;;;;;21055572;28;20040;-58
2024/01/11 17:14:16;;;;;;;0.65;0.45;;;0.90;99.90;;;;;;21073360;28;20035;-58
2024/01/11 17:24:18;;;;;;;0.32;0.10;;;1.90;98.00;;;;;;21072254;28;20055;-59
2024/01/11 17:34:20;;;;;;;1.17;0.38;;;2.10;98.90;;;;;;21053531;28;20397;-58
2024/01/11 17:44:24;;;;;;;0.28;0.10;;;1.10;99.10;;;;;;21069268;28;20036;-58
2024/01/11 17:54:26;;;;;;;1.08;0.32;;;0.90;99.20;;;;;;21069892;28;20397;-59
2024/01/11 18:04:27;;;;;;;0.20;0.10;;;0.80;99.90;;;;;;21069165;28;20031;-59
2024/01/11 18:14:29;;;;;;;0.52;0.20;;;0.70;99.90;;;;;;21068166;28;20032;-59
2024/01/11 18:24:32;;;;;;;0.30;0.10;;;1.10;99.90;;;;;;21063409;28;20106;-58
2024/01/11 18:34:33;;;;;;;0.60;0.20;;;1.00;99.60;;;;;;21067263;28;20036;-59
2024/01/11 18:44:35;;;;;;;0.60;0.20;;;2.20;97.10;;;;;;21066795;28;20094;-58
2024/01/11 18:54:40;;;;;;;1.63;0.50;;;2.20;98.40;;;;;;21066487;28;20121;-58
2024/01/11 19:04:42;;;;;;;0.55;0.20;;;1.00;99.60;;;;;;21066451;28;20036;-58
2024/01/11 19:14:44;;;;;;;0.20;0.15;;;1.20;99.50;;;;;;21065762;28;20082;-58
2024/01/11 19:24:45;;;;;;;0.40;0.20;;;1.00;99.90;;;;;;21068692;28;20093;-58
2024/01/11 19:34:47;;;;;;;1.25;0.10;;;1.00;99.90;;;;;;21062737;28;20036;-59
2024/01/11 19:44:49;;;;;;;0.60;0.30;;;1.60;98.50;;;;;;21080327;28;20043;-59
2024/01/11 19:54:51;;;;;;;0.50;0.10;;;2.20;97.20;;;;;;21079482;28;20741;-58
2024/01/11 20:04:55;;;;;;;0.30;0.20;;;2.40;96.40;;;;;;21074354;28;20047;-59
2024/01/11 20:14:57;;;;;;;0.57;0.10;;;2.20;97.00;;;;;;21058879;28;20481;-59
2024/01/11 20:24:58;;;;;;;0.55;0.20;;;1.80;97.30;;;;;;21074454;28;20105;-59
2024/01/11 20:35:00;;;;;;;0.40;0.10;;;1.70;96.80;;;;;;21074671;28;20040;-56
2024/01/11 20:45:02;;;;;;;0.50;0.20;;;1.70;97.30;;;;;;21067225;28;20051;-59
2024/01/11 20:55:04;;;;;;;0.52;0.17;;;1.40;98.20;;;;;;21074109;28;20044;-58
2024/01/11 21:05:06;;;;;;;0.35;0.10;;;1.10;99.20;;;;;;21054460;28;20032;-59
2024/01/11 21:15:08;;;;;;;0.50;0.17;;;1.10;97.90;;;;;;21046037;28;20398;-59
2024/01/11 21:25:10;;;;;;;0.20;0.10;;;1.60;97.10;;;;;;20980141;28;20110;-59
2024/01/11 21:35:11;;;;;;;0.30;0.10;;;0.70;98.30;;;;;;20980854;28;20036;-58
2024/01/11 21:45:13;;;;;;;0.60;0.10;;;1.40;96.60;;;;;;20947458;28;20075;-59
2024/01/11 21:55:15;;;;;;;0.43;0.10;;;1.40;96.30;;;;;;20968734;28;20032;-59
2024/01/11 22:05:17;;;;;;;0.20;0.10;;;1.10;98.20;;;;;;20985249;28;20029;-59
2024/01/11 22:15:22;;;;;;;0.20;0.05;;;1.00;96.30;;;;;;20984653;28;20059;-59
2024/01/11 22:25:24;;;;;;;0.95;0.10;;;1.90;92.00;;;;;;21065694;28;20127;-59
2024/01/11 22:35:28;;;;;;;0.55;0.30;;;2.00;94.90;;;;;;21067251;28;20040;-59
2024/01/11 22:45:29;;;;;;;0.63;0.30;;;0.90;97.30;;;;;;21067303;28;20575;-58
2024/01/11 22:55:32;;;;;;;0.47;0.20;;;0.10;99.50;;;;;;21066502;28;20050;-54
2024/01/11 23:05:34;;;;;;;2.28;0.30;;;-0.60;99.90;;;;;;21079931;28;20051;-58
2024/01/11 23:15:36;;;;;;;0.50;0.20;;;-0.80;99.90;;;;;;21080811;28;20085;-59
2024/01/11 23:25:38;;;;;;;0.30;0.20;;;-0.90;99.90;;;;;;21063091;28;20055;-59
2024/01/11 23:35:43;;;;;;;0.93;0.20;;;-1.10;99.90;;;;;;21080947;28;20551;-59
2024/01/11 23:45:45;;;;;;;0.32;0.15;;;-1.30;99.90;;;;;;21062368;28;20443;-58
2024/01/11 23:55:47;;;;;;;0.30;0.10;;;-1.30;99.90;;;;;;21077420;28;20393;-59
